Terminal Aerodrome Forecast
Issued by NWS

Home | Current Version | Previous Version | Text Only | Print | Product List | Glossary On
Versions: 1 2 3 4 5 6 7 8 9 10 11 12 13 14 15 16 17 18 19 20 21 22 23 24
000
FTUS43 KAPX 301725
TAFTVC
TAF
KTVC 301725Z 3018/3118 01005KT P6SM SCT035
     FM310000 00000KT P6SM SKC
     FM310800 00000KT 1 1/2SM BR BKN004
     FM311400 23006KT P6SM SCT018=

USA.gov is the U.S. government's official web portal to all federal, state and local government web resources and services.